sensor_id;sensor_type;location;lat;lon;timestamp;P1;durP1;ratioP1;P2;durP2;ratioP2
1679;SDS011;838;51.794;12.258;2023-05-07T00:00:39;11.90;;;10.33;;
1679;SDS011;838;51.794;12.258;2023-05-07T00:03:05;13.73;;;9.97;;
1679;SDS011;838;51.794;12.258;2023-05-07T00:05:32;12.60;;;10.90;;
1679;SDS011;838;51.794;12.258;2023-05-07T00:07:58;15.10;;;11.00;;
1679;SDS011;838;51.794;12.258;2023-05-07T00:10:26;13.00;;;11.20;;
1679;SDS011;838;51.794;12.258;2023-05-07T00:12:55;12.53;;;10.50;;
1679;SDS011;838;51.794;12.258;2023-05-07T00:15:21;14.40;;;11.30;;
1679;SDS011;838;51.794;12.258;2023-05-07T00:17:46;11.17;;;9.50;;
1679;SDS011;838;51.794;12.258;2023-05-07T00:20:12;12.20;;;9.57;;
1679;SDS011;838;51.794;12.258;2023-05-07T00:22:41;10.40;;;9.40;;
1679;SDS011;838;51.794;12.258;2023-05-07T00:25:09;9.93;;;8.73;;
1679;SDS011;838;51.794;12.258;2023-05-07T00:27:35;10.23;;;8.63;;
1679;SDS011;838;51.794;12.258;2023-05-07T00:30:01;11.23;;;9.47;;
1679;SDS011;838;51.794;12.258;2023-05-07T00:32:27;12.13;;;9.07;;
1679;SDS011;838;51.794;12.258;2023-05-07T00:34:53;10.40;;;9.30;;
1679;SDS011;838;51.794;12.258;2023-05-07T00:37:19;10.80;;;8.90;;
1679;SDS011;838;51.794;12.258;2023-05-07T00:39:45;9.17;;;8.17;;
1679;SDS011;838;51.794;12.258;2023-05-07T00:42:10;9.67;;;8.37;;
1679;SDS011;838;51.794;12.258;2023-05-07T00:44:41;9.93;;;8.30;;
1679;SDS011;838;51.794;12.258;2023-05-07T00:47:10;13.70;;;8.73;;
1679;SDS011;838;51.794;12.258;2023-05-07T00:49:43;10.20;;;8.97;;
1679;SDS011;838;51.794;12.258;2023-05-07T00:52:11;12.50;;;9.10;;
1679;SDS011;838;51.794;12.258;2023-05-07T00:54:41;9.17;;;7.70;;
1679;SDS011;838;51.794;12.258;2023-05-07T00:57:07;9.77;;;7.87;;
1679;SDS011;838;51.794;12.258;2023-05-07T00:59:36;9.57;;;7.77;;
1679;SDS011;838;51.794;12.258;2023-05-07T01:02:02;10.57;;;8.20;;
1679;SDS011;838;51.794;12.258;2023-05-07T01:04:28;9.83;;;7.87;;
1679;SDS011;838;51.794;12.258;2023-05-07T01:06:55;8.90;;;8.00;;
1679;SDS011;838;51.794;12.258;2023-05-07T01:09:25;10.40;;;7.73;;
1679;SDS011;838;51.794;12.258;2023-05-07T01:11:51;9.60;;;8.60;;
1679;SDS011;838;51.794;12.258;2023-05-07T01:14:22;9.30;;;7.30;;
1679;SDS011;838;51.794;12.258;2023-05-07T01:16:48;10.10;;;8.40;;
1679;SDS011;838;51.794;12.258;2023-05-07T01:19:18;9.27;;;8.13;;
1679;SDS011;838;51.794;12.258;2023-05-07T01:21:48;11.30;;;9.70;;
1679;SDS011;838;51.794;12.258;2023-05-07T01:24:14;10.00;;;8.40;;
1679;SDS011;838;51.794;12.258;2023-05-07T01:26:41;11.10;;;9.50;;
1679;SDS011;838;51.794;12.258;2023-05-07T01:29:09;10.20;;;8.80;;
1679;SDS011;838;51.794;12.258;2023-05-07T01:31:35;11.30;;;10.20;;
1679;SDS011;838;51.794;12.258;2023-05-07T01:34:02;13.07;;;11.07;;
1679;SDS011;838;51.794;12.258;2023-05-07T01:36:30;11.23;;;9.20;;
1679;SDS011;838;51.794;12.258;2023-05-07T01:38:57;13.97;;;10.87;;
1679;SDS011;838;51.794;12.258;2023-05-07T01:41:24;13.63;;;10.90;;
1679;SDS011;838;51.794;12.258;2023-05-07T01:43:50;13.60;;;10.40;;
1679;SDS011;838;51.794;12.258;2023-05-07T01:46:17;13.50;;;11.00;;
1679;SDS011;838;51.794;12.258;2023-05-07T01:48:44;13.03;;;10.70;;
1679;SDS011;838;51.794;12.258;2023-05-07T01:51:14;13.03;;;9.77;;
1679;SDS011;838;51.794;12.258;2023-05-07T01:53:40;11.13;;;9.90;;
1679;SDS011;838;51.794;12.258;2023-05-07T01:56:06;11.60;;;9.67;;
1679;SDS011;838;51.794;12.258;2023-05-07T01:58:32;13.40;;;11.30;;
1679;SDS011;838;51.794;12.258;2023-05-07T02:01:01;12.27;;;9.83;;
1679;SDS011;838;51.794;12.258;2023-05-07T02:03:27;12.37;;;11.03;;
1679;SDS011;838;51.794;12.258;2023-05-07T02:05:52;13.97;;;11.00;;
1679;SDS011;838;51.794;12.258;2023-05-07T02:08:18;14.40;;;11.70;;
1679;SDS011;838;51.794;12.258;2023-05-07T02:10:44;15.90;;;11.90;;
1679;SDS011;838;51.794;12.258;2023-05-07T02:13:12;12.43;;;11.10;;
1679;SDS011;838;51.794;12.258;2023-05-07T02:15:39;13.00;;;11.60;;
1679;SDS011;838;51.794;12.258;2023-05-07T02:18:05;13.80;;;11.57;;
1679;SDS011;838;51.794;12.258;2023-05-07T02:20:32;14.00;;;11.70;;
1679;SDS011;838;51.794;12.258;2023-05-07T02:22:58;14.07;;;12.17;;
1679;SDS011;838;51.794;12.258;2023-05-07T02:25:24;14.50;;;10.57;;
1679;SDS011;838;51.794;12.258;2023-05-07T02:27:51;16.33;;;12.10;;
1679;SDS011;838;51.794;12.258;2023-05-07T02:30:16;13.07;;;11.07;;
1679;SDS011;838;51.794;12.258;2023-05-07T02:32:42;14.10;;;12.20;;
1679;SDS011;838;51.794;12.258;2023-05-07T02:35:08;15.67;;;13.00;;
1679;SDS011;838;51.794;12.258;2023-05-07T02:37:34;15.93;;;12.77;;
1679;SDS011;838;51.794;12.258;2023-05-07T02:40:00;12.83;;;11.43;;
1679;SDS011;838;51.794;12.258;2023-05-07T02:42:25;14.77;;;12.50;;
1679;SDS011;838;51.794;12.258;2023-05-07T02:44:51;14.80;;;12.17;;
1679;SDS011;838;51.794;12.258;2023-05-07T02:47:17;13.13;;;11.70;;
1679;SDS011;838;51.794;12.258;2023-05-07T02:49:43;13.93;;;11.80;;
1679;SDS011;838;51.794;12.258;2023-05-07T02:52:08;17.50;;;11.40;;
1679;SDS011;838;51.794;12.258;2023-05-07T02:54:34;14.93;;;11.67;;
1679;SDS011;838;51.794;12.258;2023-05-07T02:57:00;15.10;;;12.00;;
1679;SDS011;838;51.794;12.258;2023-05-07T02:59:27;14.53;;;11.07;;
1679;SDS011;838;51.794;12.258;2023-05-07T03:01:54;15.27;;;12.93;;
1679;SDS011;838;51.794;12.258;2023-05-07T03:04:20;12.03;;;10.73;;
1679;SDS011;838;51.794;12.258;2023-05-07T03:06:54;13.80;;;11.10;;
1679;SDS011;838;51.794;12.258;2023-05-07T03:09:20;15.40;;;12.33;;
1679;SDS011;838;51.794;12.258;2023-05-07T03:11:49;13.13;;;10.47;;
1679;SDS011;838;51.794;12.258;2023-05-07T03:14:15;12.53;;;11.20;;
1679;SDS011;838;51.794;12.258;2023-05-07T03:16:44;15.27;;;11.60;;
1679;SDS011;838;51.794;12.258;2023-05-07T03:19:13;11.20;;;9.70;;
1679;SDS011;838;51.794;12.258;2023-05-07T03:21:38;14.70;;;11.10;;
1679;SDS011;838;51.794;12.258;2023-05-07T03:24:04;13.00;;;11.10;;
1679;SDS011;838;51.794;12.258;2023-05-07T03:26:31;14.00;;;11.07;;
1679;SDS011;838;51.794;12.258;2023-05-07T03:28:57;14.17;;;11.20;;
1679;SDS011;838;51.794;12.258;2023-05-07T03:31:25;12.90;;;10.87;;
1679;SDS011;838;51.794;12.258;2023-05-07T03:33:55;12.50;;;10.30;;
1679;SDS011;838;51.794;12.258;2023-05-07T03:36:23;14.83;;;11.00;;
1679;SDS011;838;51.794;12.258;2023-05-07T03:38:49;12.90;;;10.87;;
1679;SDS011;838;51.794;12.258;2023-05-07T03:41:15;13.73;;;10.50;;
1679;SDS011;838;51.794;12.258;2023-05-07T03:43:41;12.93;;;10.03;;
1679;SDS011;838;51.794;12.258;2023-05-07T03:46:10;12.13;;;10.50;;
1679;SDS011;838;51.794;12.258;2023-05-07T03:48:36;12.10;;;9.77;;
1679;SDS011;838;51.794;12.258;2023-05-07T03:51:01;12.50;;;11.00;;
1679;SDS011;838;51.794;12.258;2023-05-07T03:53:27;11.07;;;9.77;;
1679;SDS011;838;51.794;12.258;2023-05-07T03:55:56;12.10;;;9.50;;
1679;SDS011;838;51.794;12.258;2023-05-07T03:58:25;12.63;;;11.17;;
1679;SDS011;838;51.794;12.258;2023-05-07T04:00:53;12.00;;;9.17;;
1679;SDS011;838;51.794;12.258;2023-05-07T04:03:19;11.73;;;10.10;;
1679;SDS011;838;51.794;12.258;2023-05-07T04:05:48;9.97;;;8.80;;
1679;SDS011;838;51.794;12.258;2023-05-07T04:08:17;12.10;;;9.73;;
1679;SDS011;838;51.794;12.258;2023-05-07T04:10:46;10.20;;;8.73;;
1679;SDS011;838;51.794;12.258;2023-05-07T04:13:24;10.93;;;9.83;;
1679;SDS011;838;51.794;12.258;2023-05-07T04:15:51;12.23;;;9.00;;
1679;SDS011;838;51.794;12.258;2023-05-07T04:18:20;10.27;;;8.40;;
1679;SDS011;838;51.794;12.258;2023-05-07T04:20:49;13.03;;;10.00;;
1679;SDS011;838;51.794;12.258;2023-05-07T04:23:15;11.37;;;9.10;;
1679;SDS011;838;51.794;12.258;2023-05-07T04:25:44;11.57;;;9.40;;
1679;SDS011;838;51.794;12.258;2023-05-07T04:28:10;13.07;;;10.40;;
1679;SDS011;838;51.794;12.258;2023-05-07T04:30:42;11.53;;;9.70;;
1679;SDS011;838;51.794;12.258;2023-05-07T04:33:09;9.97;;;8.90;;
1679;SDS011;838;51.794;12.258;2023-05-07T04:35:36;12.27;;;10.00;;
1679;SDS011;838;51.794;12.258;2023-05-07T04:38:02;11.33;;;9.67;;
1679;SDS011;838;51.794;12.258;2023-05-07T04:40:31;13.90;;;10.03;;
1679;SDS011;838;51.794;12.258;2023-05-07T04:42:57;10.73;;;9.60;;
1679;SDS011;838;51.794;12.258;2023-05-07T04:45:23;10.87;;;8.70;;
1679;SDS011;838;51.794;12.258;2023-05-07T04:47:49;10.80;;;8.33;;
1679;SDS011;838;51.794;12.258;2023-05-07T04:50:15;10.17;;;8.93;;
1679;SDS011;838;51.794;12.258;2023-05-07T04:52:41;12.10;;;9.63;;
1679;SDS011;838;51.794;12.258;2023-05-07T04:55:07;11.20;;;9.13;;
1679;SDS011;838;51.794;12.258;2023-05-07T04:57:38;10.60;;;8.60;;
1679;SDS011;838;51.794;12.258;2023-05-07T05:00:05;9.90;;;8.43;;
1679;SDS011;838;51.794;12.258;2023-05-07T05:02:35;10.03;;;8.27;;
1679;SDS011;838;51.794;12.258;2023-05-07T05:05:01;10.13;;;7.70;;
1679;SDS011;838;51.794;12.258;2023-05-07T05:07:30;8.10;;;6.87;;
1679;SDS011;838;51.794;12.258;2023-05-07T05:09:55;7.63;;;5.90;;
1679;SDS011;838;51.794;12.258;2023-05-07T05:12:24;8.03;;;6.77;;
1679;SDS011;838;51.794;12.258;2023-05-07T05:14:50;7.60;;;6.40;;
1679;SDS011;838;51.794;12.258;2023-05-07T05:17:15;6.40;;;5.50;;
1679;SDS011;838;51.794;12.258;2023-05-07T05:19:41;8.20;;;6.50;;
1679;SDS011;838;51.794;12.258;2023-05-07T05:22:07;6.47;;;5.03;;
1679;SDS011;838;51.794;12.258;2023-05-07T05:24:32;10.03;;;6.37;;
1679;SDS011;838;51.794;12.258;2023-05-07T05:26:58;7.43;;;6.07;;
1679;SDS011;838;51.794;12.258;2023-05-07T05:29:27;7.17;;;6.20;;
1679;SDS011;838;51.794;12.258;2023-05-07T05:31:53;7.30;;;6.20;;
1679;SDS011;838;51.794;12.258;2023-05-07T05:34:19;7.53;;;6.37;;
1679;SDS011;838;51.794;12.258;2023-05-07T05:36:45;6.30;;;5.60;;
1679;SDS011;838;51.794;12.258;2023-05-07T05:39:11;7.50;;;4.90;;
1679;SDS011;838;51.794;12.258;2023-05-07T05:41:37;5.83;;;4.93;;
1679;SDS011;838;51.794;12.258;2023-05-07T05:44:03;5.67;;;4.70;;
1679;SDS011;838;51.794;12.258;2023-05-07T05:46:29;6.70;;;4.93;;
1679;SDS011;838;51.794;12.258;2023-05-07T05:48:55;6.30;;;4.70;;
1679;SDS011;838;51.794;12.258;2023-05-07T05:51:24;6.23;;;4.40;;
1679;SDS011;838;51.794;12.258;2023-05-07T05:53:50;5.30;;;4.30;;
1679;SDS011;838;51.794;12.258;2023-05-07T05:56:15;5.23;;;4.13;;
1679;SDS011;838;51.794;12.258;2023-05-07T05:58:41;6.10;;;4.97;;
1679;SDS011;838;51.794;12.258;2023-05-07T06:01:08;5.83;;;4.40;;
1679;SDS011;838;51.794;12.258;2023-05-07T06:03:34;6.30;;;4.63;;
1679;SDS011;838;51.794;12.258;2023-05-07T06:06:02;5.33;;;4.23;;
1679;SDS011;838;51.794;12.258;2023-05-07T06:08:29;5.57;;;4.40;;
1679;SDS011;838;51.794;12.258;2023-05-07T06:10:55;4.90;;;3.73;;
1679;SDS011;838;51.794;12.258;2023-05-07T06:13:21;6.30;;;4.67;;
1679;SDS011;838;51.794;12.258;2023-05-07T06:15:48;5.40;;;4.63;;
1679;SDS011;838;51.794;12.258;2023-05-07T06:18:14;6.20;;;5.00;;
1679;SDS011;838;51.794;12.258;2023-05-07T06:20:40;6.30;;;5.10;;
1679;SDS011;838;51.794;12.258;2023-05-07T06:23:06;5.17;;;4.33;;
1679;SDS011;838;51.794;12.258;2023-05-07T06:25:31;6.50;;;5.10;;
1679;SDS011;838;51.794;12.258;2023-05-07T06:27:57;5.83;;;4.10;;
1679;SDS011;838;51.794;12.258;2023-05-07T06:30:26;5.97;;;4.70;;
1679;SDS011;838;51.794;12.258;2023-05-07T06:32:52;5.67;;;4.63;;
1679;SDS011;838;51.794;12.258;2023-05-07T06:35:18;6.60;;;5.40;;
1679;SDS011;838;51.794;12.258;2023-05-07T06:37:47;6.23;;;4.77;;
1679;SDS011;838;51.794;12.258;2023-05-07T06:40:13;5.70;;;4.50;;
1679;SDS011;838;51.794;12.258;2023-05-07T06:42:38;4.90;;;4.20;;
1679;SDS011;838;51.794;12.258;2023-05-07T06:45:04;7.47;;;4.33;;
1679;SDS011;838;51.794;12.258;2023-05-07T06:47:30;6.70;;;4.60;;
1679;SDS011;838;51.794;12.258;2023-05-07T06:49:57;6.43;;;4.57;;
1679;SDS011;838;51.794;12.258;2023-05-07T06:52:23;5.60;;;4.80;;
1679;SDS011;838;51.794;12.258;2023-05-07T06:54:49;5.50;;;4.47;;
1679;SDS011;838;51.794;12.258;2023-05-07T06:57:15;5.10;;;4.00;;
1679;SDS011;838;51.794;12.258;2023-05-07T06:59:43;5.70;;;4.07;;
1679;SDS011;838;51.794;12.258;2023-05-07T07:02:09;5.37;;;4.10;;
1679;SDS011;838;51.794;12.258;2023-05-07T07:04:35;5.73;;;4.20;;
1679;SDS011;838;51.794;12.258;2023-05-07T07:07:01;4.90;;;4.17;;
1679;SDS011;838;51.794;12.258;2023-05-07T07:09:27;4.63;;;3.40;;
1679;SDS011;838;51.794;12.258;2023-05-07T07:11:52;4.77;;;3.90;;
1679;SDS011;838;51.794;12.258;2023-05-07T07:14:18;4.43;;;3.20;;
1679;SDS011;838;51.794;12.258;2023-05-07T07:16:44;5.40;;;3.63;;
1679;SDS011;838;51.794;12.258;2023-05-07T07:19:11;4.90;;;3.87;;
1679;SDS011;838;51.794;12.258;2023-05-07T07:21:37;5.03;;;3.80;;
1679;SDS011;838;51.794;12.258;2023-05-07T07:24:03;5.33;;;4.10;;
1679;SDS011;838;51.794;12.258;2023-05-07T07:26:32;5.20;;;3.60;;
1679;SDS011;838;51.794;12.258;2023-05-07T07:28:58;5.30;;;4.00;;
1679;SDS011;838;51.794;12.258;2023-05-07T07:31:24;4.60;;;3.90;;
1679;SDS011;838;51.794;12.258;2023-05-07T07:33:49;6.13;;;4.20;;
1679;SDS011;838;51.794;12.258;2023-05-07T07:36:15;4.67;;;3.77;;
1679;SDS011;838;51.794;12.258;2023-05-07T07:38:41;5.20;;;3.67;;
1679;SDS011;838;51.794;12.258;2023-05-07T07:41:10;5.10;;;4.17;;
1679;SDS011;838;51.794;12.258;2023-05-07T07:43:35;6.40;;;4.63;;
1679;SDS011;838;51.794;12.258;2023-05-07T07:46:01;6.10;;;5.07;;
1679;SDS011;838;51.794;12.258;2023-05-07T07:48:27;6.63;;;5.10;;
1679;SDS011;838;51.794;12.258;2023-05-07T07:50:53;6.83;;;5.23;;
1679;SDS011;838;51.794;12.258;2023-05-07T07:53:19;7.10;;;5.03;;
1679;SDS011;838;51.794;12.258;2023-05-07T07:55:47;7.63;;;6.13;;
1679;SDS011;838;51.794;12.258;2023-05-07T07:58:13;6.90;;;5.60;;
1679;SDS011;838;51.794;12.258;2023-05-07T08:00:38;6.23;;;4.73;;
1679;SDS011;838;51.794;12.258;2023-05-07T08:03:04;7.97;;;5.80;;
1679;SDS011;838;51.794;12.258;2023-05-07T08:05:32;6.63;;;5.40;;
1679;SDS011;838;51.794;12.258;2023-05-07T08:08:01;7.00;;;6.10;;
1679;SDS011;838;51.794;12.258;2023-05-07T08:10:26;8.03;;;5.57;;
1679;SDS011;838;51.794;12.258;2023-05-07T08:12:52;7.90;;;5.77;;
1679;SDS011;838;51.794;12.258;2023-05-07T08:15:18;8.77;;;5.07;;
1679;SDS011;838;51.794;12.258;2023-05-07T08:17:44;8.13;;;5.93;;
1679;SDS011;838;51.794;12.258;2023-05-07T08:20:10;7.07;;;5.40;;
1679;SDS011;838;51.794;12.258;2023-05-07T08:22:36;8.30;;;6.40;;
1679;SDS011;838;51.794;12.258;2023-05-07T08:25:02;9.63;;;6.27;;
1679;SDS011;838;51.794;12.258;2023-05-07T08:27:28;8.83;;;7.03;;
1679;SDS011;838;51.794;12.258;2023-05-07T08:29:57;8.93;;;6.90;;
1679;SDS011;838;51.794;12.258;2023-05-07T08:32:26;7.30;;;6.40;;
1679;SDS011;838;51.794;12.258;2023-05-07T08:34:52;8.67;;;6.80;;
1679;SDS011;838;51.794;12.258;2023-05-07T08:37:18;8.10;;;6.77;;
1679;SDS011;838;51.794;12.258;2023-05-07T08:39:44;10.97;;;7.03;;
1679;SDS011;838;51.794;12.258;2023-05-07T08:42:10;8.50;;;6.70;;
1679;SDS011;838;51.794;12.258;2023-05-07T08:44:38;10.10;;;7.10;;
1679;SDS011;838;51.794;12.258;2023-05-07T08:47:06;10.40;;;7.17;;
1679;SDS011;838;51.794;12.258;2023-05-07T08:49:33;8.00;;;6.23;;
1679;SDS011;838;51.794;12.258;2023-05-07T08:52:00;9.30;;;6.77;;
1679;SDS011;838;51.794;12.258;2023-05-07T08:54:26;8.27;;;6.77;;
1679;SDS011;838;51.794;12.258;2023-05-07T08:56:54;8.50;;;7.23;;
1679;SDS011;838;51.794;12.258;2023-05-07T08:59:20;9.50;;;6.60;;
1679;SDS011;838;51.794;12.258;2023-05-07T09:01:45;9.33;;;6.13;;
1679;SDS011;838;51.794;12.258;2023-05-07T09:04:11;6.80;;;5.90;;
1679;SDS011;838;51.794;12.258;2023-05-07T09:06:38;10.47;;;7.00;;
1679;SDS011;838;51.794;12.258;2023-05-07T09:09:06;7.47;;;5.97;;
1679;SDS011;838;51.794;12.258;2023-05-07T09:11:33;9.50;;;6.17;;
1679;SDS011;838;51.794;12.258;2023-05-07T09:13:59;8.00;;;6.40;;
1679;SDS011;838;51.794;12.258;2023-05-07T09:16:26;7.57;;;5.90;;
1679;SDS011;838;51.794;12.258;2023-05-07T09:18:56;8.60;;;6.30;;
1679;SDS011;838;51.794;12.258;2023-05-07T09:21:24;7.07;;;5.40;;
1679;SDS011;838;51.794;12.258;2023-05-07T09:23:51;6.97;;;5.43;;
1679;SDS011;838;51.794;12.258;2023-05-07T09:26:18;6.90;;;5.97;;
1679;SDS011;838;51.794;12.258;2023-05-07T09:28:47;7.23;;;6.07;;
1679;SDS011;838;51.794;12.258;2023-05-07T09:31:13;7.57;;;6.80;;
1679;SDS011;838;51.794;12.258;2023-05-07T09:33:40;10.30;;;7.17;;
1679;SDS011;838;51.794;12.258;2023-05-07T09:36:06;8.00;;;6.90;;
1679;SDS011;838;51.794;12.258;2023-05-07T09:38:34;7.60;;;6.73;;
1679;SDS011;838;51.794;12.258;2023-05-07T09:41:10;8.47;;;6.77;;
1679;SDS011;838;51.794;12.258;2023-05-07T09:43:38;9.43;;;7.07;;
1679;SDS011;838;51.794;12.258;2023-05-07T09:46:14;8.70;;;6.70;;
1679;SDS011;838;51.794;12.258;2023-05-07T09:48:42;8.70;;;6.70;;
1679;SDS011;838;51.794;12.258;2023-05-07T09:51:22;8.50;;;5.47;;
1679;SDS011;838;51.794;12.258;2023-05-07T09:53:56;7.70;;;6.40;;
1679;SDS011;838;51.794;12.258;2023-05-07T09:56:22;7.43;;;5.20;;
1679;SDS011;838;51.794;12.258;2023-05-07T09:58:49;7.47;;;6.40;;
1679;SDS011;838;51.794;12.258;2023-05-07T10:01:19;7.80;;;5.73;;
1679;SDS011;838;51.794;12.258;2023-05-07T10:03:49;8.53;;;6.30;;
1679;SDS011;838;51.794;12.258;2023-05-07T10:06:16;7.57;;;5.60;;
1679;SDS011;838;51.794;12.258;2023-05-07T10:08:43;7.80;;;5.53;;
1679;SDS011;838;51.794;12.258;2023-05-07T10:11:09;7.23;;;5.20;;
1679;SDS011;838;51.794;12.258;2023-05-07T10:13:36;7.10;;;5.30;;
1679;SDS011;838;51.794;12.258;2023-05-07T10:16:03;7.27;;;5.57;;
1679;SDS011;838;51.794;12.258;2023-05-07T10:18:30;8.10;;;5.93;;
1679;SDS011;838;51.794;12.258;2023-05-07T10:21:08;6.47;;;5.27;;
1679;SDS011;838;51.794;12.258;2023-05-07T10:23:41;7.53;;;5.30;;
1679;SDS011;838;51.794;12.258;2023-05-07T10:26:11;6.40;;;4.90;;
1679;SDS011;838;51.794;12.258;2023-05-07T10:28:38;8.03;;;6.60;;
1679;SDS011;838;51.794;12.258;2023-05-07T10:31:15;8.73;;;6.77;;
1679;SDS011;838;51.794;12.258;2023-05-07T10:33:52;7.20;;;6.50;;
1679;SDS011;838;51.794;12.258;2023-05-07T10:36:22;7.40;;;5.83;;
1679;SDS011;838;51.794;12.258;2023-05-07T10:38:49;10.23;;;7.93;;
1679;SDS011;838;51.794;12.258;2023-05-07T10:41:15;9.10;;;7.47;;
1679;SDS011;838;51.794;12.258;2023-05-07T10:43:44;9.47;;;7.50;;
1679;SDS011;838;51.794;12.258;2023-05-07T10:51:27;8.70;;;7.40;;
1679;SDS011;838;51.794;12.258;2023-05-07T10:56:40;9.77;;;7.80;;
1679;SDS011;838;51.794;12.258;2023-05-07T11:01:58;10.40;;;7.70;;
1679;SDS011;838;51.794;12.258;2023-05-07T11:04:28;9.90;;;7.17;;
1679;SDS011;838;51.794;12.258;2023-05-07T11:12:16;9.27;;;7.40;;
1679;SDS011;838;51.794;12.258;2023-05-07T11:14:45;11.50;;;6.97;;
1679;SDS011;838;51.794;12.258;2023-05-07T11:17:12;7.87;;;7.10;;
1679;SDS011;838;51.794;12.258;2023-05-07T11:25:05;8.90;;;6.57;;
1679;SDS011;838;51.794;12.258;2023-05-07T11:27:31;9.87;;;6.90;;
1679;SDS011;838;51.794;12.258;2023-05-07T11:29:58;6.97;;;6.07;;
1679;SDS011;838;51.794;12.258;2023-05-07T11:32:24;8.43;;;6.30;;
1679;SDS011;838;51.794;12.258;2023-05-07T11:34:55;6.37;;;5.63;;
1679;SDS011;838;51.794;12.258;2023-05-07T11:37:22;7.30;;;6.07;;
1679;SDS011;838;51.794;12.258;2023-05-07T11:39:50;7.43;;;6.10;;
1679;SDS011;838;51.794;12.258;2023-05-07T11:44:55;5.83;;;4.70;;
1679;SDS011;838;51.794;12.258;2023-05-07T11:47:22;8.83;;;5.00;;
1679;SDS011;838;51.794;12.258;2023-05-07T11:49:49;6.60;;;5.33;;
1679;SDS011;838;51.794;12.258;2023-05-07T11:52:16;5.90;;;4.87;;
1679;SDS011;838;51.794;12.258;2023-05-07T11:57:15;9.00;;;5.17;;
1679;SDS011;838;51.794;12.258;2023-05-07T11:59:42;9.23;;;5.30;;
1679;SDS011;838;51.794;12.258;2023-05-07T12:02:16;5.60;;;4.43;;
1679;SDS011;838;51.794;12.258;2023-05-07T12:04:43;5.80;;;4.50;;
1679;SDS011;838;51.794;12.258;2023-05-07T12:07:12;6.30;;;5.13;;
1679;SDS011;838;51.794;12.258;2023-05-07T12:09:42;8.10;;;4.93;;
1679;SDS011;838;51.794;12.258;2023-05-07T12:12:08;5.90;;;4.87;;
1679;SDS011;838;51.794;12.258;2023-05-07T12:14:41;6.97;;;4.80;;
1679;SDS011;838;51.794;12.258;2023-05-07T12:17:08;6.60;;;5.73;;
1679;SDS011;838;51.794;12.258;2023-05-07T12:19:35;6.67;;;5.47;;
1679;SDS011;838;51.794;12.258;2023-05-07T12:22:02;7.60;;;5.47;;
1679;SDS011;838;51.794;12.258;2023-05-07T12:24:29;7.27;;;5.37;;
1679;SDS011;838;51.794;12.258;2023-05-07T12:27:06;6.73;;;5.57;;
1679;SDS011;838;51.794;12.258;2023-05-07T12:29:32;8.20;;;5.47;;
1679;SDS011;838;51.794;12.258;2023-05-07T12:31:58;6.57;;;5.80;;
1679;SDS011;838;51.794;12.258;2023-05-07T12:34:24;8.57;;;6.87;;
1679;SDS011;838;51.794;12.258;2023-05-07T12:36:49;10.20;;;6.80;;
1679;SDS011;838;51.794;12.258;2023-05-07T12:39:15;7.90;;;6.53;;
1679;SDS011;838;51.794;12.258;2023-05-07T12:44:21;8.17;;;6.37;;
1679;SDS011;838;51.794;12.258;2023-05-07T12:46:50;7.60;;;6.77;;
1679;SDS011;838;51.794;12.258;2023-05-07T12:49:16;7.00;;;5.60;;
1679;SDS011;838;51.794;12.258;2023-05-07T12:51:48;7.23;;;5.30;;
1679;SDS011;838;51.794;12.258;2023-05-07T12:54:30;6.57;;;5.20;;
1679;SDS011;838;51.794;12.258;2023-05-07T12:57:15;8.23;;;6.07;;
1679;SDS011;838;51.794;12.258;2023-05-07T12:59:45;8.20;;;6.77;;
1679;SDS011;838;51.794;12.258;2023-05-07T13:02:14;9.50;;;6.43;;
1679;SDS011;838;51.794;12.258;2023-05-07T13:04:40;7.70;;;6.20;;
1679;SDS011;838;51.794;12.258;2023-05-07T13:07:06;8.97;;;7.10;;
1679;SDS011;838;51.794;12.258;2023-05-07T13:09:34;8.03;;;7.13;;
1679;SDS011;838;51.794;12.258;2023-05-07T13:12:02;9.33;;;7.43;;
1679;SDS011;838;51.794;12.258;2023-05-07T13:14:28;8.63;;;6.43;;
1679;SDS011;838;51.794;12.258;2023-05-07T13:16:54;8.37;;;7.30;;
1679;SDS011;838;51.794;12.258;2023-05-07T13:19:19;8.07;;;6.67;;
1679;SDS011;838;51.794;12.258;2023-05-07T13:21:45;7.03;;;6.27;;
1679;SDS011;838;51.794;12.258;2023-05-07T13:24:11;9.43;;;6.63;;
1679;SDS011;838;51.794;12.258;2023-05-07T13:26:37;9.73;;;6.40;;
1679;SDS011;838;51.794;12.258;2023-05-07T13:29:03;8.20;;;7.13;;
1679;SDS011;838;51.794;12.258;2023-05-07T13:31:28;8.90;;;5.73;;
1679;SDS011;838;51.794;12.258;2023-05-07T13:33:54;7.20;;;6.50;;
1679;SDS011;838;51.794;12.258;2023-05-07T13:36:21;6.53;;;5.20;;
1679;SDS011;838;51.794;12.258;2023-05-07T13:38:49;6.90;;;5.33;;
1679;SDS011;838;51.794;12.258;2023-05-07T13:41:16;6.63;;;5.37;;
1679;SDS011;838;51.794;12.258;2023-05-07T13:43:42;5.73;;;5.13;;
1679;SDS011;838;51.794;12.258;2023-05-07T13:46:08;6.40;;;5.70;;
1679;SDS011;838;51.794;12.258;2023-05-07T13:48:36;7.17;;;4.57;;
1679;SDS011;838;51.794;12.258;2023-05-07T13:51:02;5.73;;;4.83;;
1679;SDS011;838;51.794;12.258;2023-05-07T13:53:28;6.40;;;4.70;;
1679;SDS011;838;51.794;12.258;2023-05-07T13:55:53;5.80;;;4.70;;
1679;SDS011;838;51.794;12.258;2023-05-07T13:58:20;5.23;;;4.00;;
1679;SDS011;838;51.794;12.258;2023-05-07T14:00:45;5.80;;;3.83;;
1679;SDS011;838;51.794;12.258;2023-05-07T14:03:11;5.80;;;4.47;;
1679;SDS011;838;51.794;12.258;2023-05-07T14:05:40;5.47;;;4.47;;
1679;SDS011;838;51.794;12.258;2023-05-07T14:08:09;5.67;;;4.43;;
1679;SDS011;838;51.794;12.258;2023-05-07T14:10:36;5.30;;;3.77;;
1679;SDS011;838;51.794;12.258;2023-05-07T14:13:01;5.40;;;4.50;;
1679;SDS011;838;51.794;12.258;2023-05-07T14:15:30;5.70;;;4.30;;
1679;SDS011;838;51.794;12.258;2023-05-07T14:17:57;5.27;;;4.37;;
1679;SDS011;838;51.794;12.258;2023-05-07T14:20:24;5.47;;;3.93;;
1679;SDS011;838;51.794;12.258;2023-05-07T14:22:50;6.60;;;4.50;;
1679;SDS011;838;51.794;12.258;2023-05-07T14:25:16;5.80;;;4.43;;
1679;SDS011;838;51.794;12.258;2023-05-07T14:27:42;5.83;;;4.10;;
1679;SDS011;838;51.794;12.258;2023-05-07T14:30:08;5.67;;;4.40;;
1679;SDS011;838;51.794;12.258;2023-05-07T14:32:34;5.67;;;3.97;;
1679;SDS011;838;51.794;12.258;2023-05-07T14:35:01;4.93;;;4.23;;
1679;SDS011;838;51.794;12.258;2023-05-07T14:37:27;5.40;;;3.90;;
1679;SDS011;838;51.794;12.258;2023-05-07T14:39:53;5.00;;;3.70;;
1679;SDS011;838;51.794;12.258;2023-05-07T14:42:19;5.10;;;4.17;;
1679;SDS011;838;51.794;12.258;2023-05-07T14:44:47;4.90;;;4.00;;
1679;SDS011;838;51.794;12.258;2023-05-07T14:47:14;6.33;;;3.73;;
1679;SDS011;838;51.794;12.258;2023-05-07T14:49:40;6.07;;;3.90;;
1679;SDS011;838;51.794;12.258;2023-05-07T14:52:07;4.50;;;3.53;;
1679;SDS011;838;51.794;12.258;2023-05-07T14:54:35;4.40;;;3.00;;
1679;SDS011;838;51.794;12.258;2023-05-07T14:57:02;4.40;;;3.10;;
1679;SDS011;838;51.794;12.258;2023-05-07T14:59:27;5.73;;;3.90;;
1679;SDS011;838;51.794;12.258;2023-05-07T15:01:53;4.83;;;3.30;;
1679;SDS011;838;51.794;12.258;2023-05-07T15:04:19;4.70;;;3.30;;
1679;SDS011;838;51.794;12.258;2023-05-07T15:06:45;6.20;;;4.00;;
1679;SDS011;838;51.794;12.258;2023-05-07T15:09:11;6.37;;;4.13;;
1679;SDS011;838;51.794;12.258;2023-05-07T15:11:37;4.17;;;3.53;;
1679;SDS011;838;51.794;12.258;2023-05-07T15:14:03;4.60;;;3.23;;
1679;SDS011;838;51.794;12.258;2023-05-07T15:16:32;4.43;;;3.40;;
1679;SDS011;838;51.794;12.258;2023-05-07T15:18:59;4.90;;;4.13;;
1679;SDS011;838;51.794;12.258;2023-05-07T15:21:28;6.53;;;4.00;;
1679;SDS011;838;51.794;12.258;2023-05-07T15:23:55;6.57;;;3.83;;
1679;SDS011;838;51.794;12.258;2023-05-07T15:26:21;5.53;;;4.07;;
1679;SDS011;838;51.794;12.258;2023-05-07T15:28:50;5.40;;;4.77;;
1679;SDS011;838;51.794;12.258;2023-05-07T15:31:17;5.70;;;4.43;;
1679;SDS011;838;51.794;12.258;2023-05-07T15:33:43;6.53;;;4.37;;
1679;SDS011;838;51.794;12.258;2023-05-07T15:36:09;5.47;;;4.00;;